Time;durP1;ratioP1;P1;durP2;ratioP2;P2;SDS_P1;SDS_P2;PMS_P1;PMS_P2;Temp;Humidity;BMP_temperature;BMP_pressure;BME280_temperature;BME280_humidity;BME280_pressure;Samples;Min_cycle;Max_cycle;Signal;HPM_P1;HPM_P2
2022/01/09 00:00:37;;;;;;;2.97;1.63;;;25.80;99.90;;;;;;4967942;28;20382;-76
2022/01/09 00:03:05;;;;;;;4.22;1.27;;;26.00;99.90;;;;;;4971140;28;20034;-75
2022/01/09 00:05:33;;;;;;;6.95;1.50;;;26.10;99.90;;;;;;4969191;28;20111;-75
2022/01/09 00:08:01;;;;;;;2.33;1.10;;;26.10;99.90;;;;;;4970963;28;20050;-76
2022/01/09 00:10:30;;;;;;;2.90;0.80;;;25.90;99.90;;;;;;4972732;28;20018;-75
2022/01/09 00:12:58;;;;;;;2.28;0.98;;;26.00;99.90;;;;;;4971622;28;20110;-76
2022/01/09 00:15:26;;;;;;;1.35;1.00;;;26.00;99.90;;;;;;4970008;28;20026;-75
2022/01/09 00:17:54;;;;;;;2.88;1.10;;;25.90;99.90;;;;;;4981337;28;20027;-76
2022/01/09 00:20:21;;;;;;;5.90;1.33;;;25.80;99.90;;;;;;4967645;28;20390;-78
2022/01/09 00:22:51;;;;;;;3.20;1.42;;;25.90;99.90;;;;;;4958991;28;20501;-74
2022/01/09 00:25:21;;;;;;;2.10;1.02;;;25.90;99.90;;;;;;4967065;28;20569;-72
2022/01/09 00:27:49;;;;;;;2.90;0.85;;;25.90;99.90;;;;;;4962523;28;20577;-75
2022/01/09 00:30:19;;;;;;;2.95;1.30;;;25.80;99.90;;;;;;4964459;28;20559;-75
2022/01/09 00:32:46;;;;;;;4.05;1.02;;;25.80;99.90;;;;;;4961615;28;20040;-84
2022/01/09 00:35:15;;;;;;;5.68;1.20;;;25.70;99.90;;;;;;4964762;28;20065;-75
2022/01/09 00:37:43;;;;;;;1.75;1.00;;;25.70;99.90;;;;;;4970541;28;20022;-80
2022/01/09 00:40:12;;;;;;;4.68;1.00;;;25.80;99.90;;;;;;4971767;28;20058;-77
2022/01/09 00:42:41;;;;;;;6.47;1.38;;;25.80;99.90;;;;;;4961309;28;20153;-75
2022/01/09 00:45:09;;;;;;;2.25;1.13;;;25.80;99.90;;;;;;4967361;28;20031;-83
2022/01/09 00:47:37;;;;;;;3.65;2.17;;;25.90;99.90;;;;;;4967912;28;20047;-76
2022/01/09 00:50:05;;;;;;;5.03;1.80;;;25.80;99.90;;;;;;4958892;28;20038;-76
2022/01/09 00:52:32;;;;;;;1.88;0.80;;;25.80;99.90;;;;;;4954900;28;20032;-76
2022/01/09 00:55:00;;;;;;;4.97;1.33;;;25.90;99.90;;;;;;4962908;28;20038;-74
2022/01/09 00:57:28;;;;;;;4.28;1.30;;;25.90;99.90;;;;;;4963111;28;20516;-77
2022/01/09 00:59:55;;;;;;;5.80;1.15;;;25.90;99.90;;;;;;4969726;28;20038;-76
2022/01/09 01:02:23;;;;;;;4.90;1.40;;;25.90;99.90;;;;;;4964907;28;20033;-74
2022/01/09 01:04:51;;;;;;;8.57;1.27;;;25.90;99.90;;;;;;4970286;28;20344;-75
2022/01/09 01:07:20;;;;;;;3.60;0.98;;;25.80;99.90;;;;;;4959282;28;20069;-75
2022/01/09 01:09:47;;;;;;;5.05;1.77;;;25.90;99.90;;;;;;4970347;28;20030;-74
2022/01/09 01:12:15;;;;;;;3.55;1.02;;;25.80;99.90;;;;;;4968906;28;20392;-73
2022/01/09 01:14:42;;;;;;;6.00;1.35;;;25.70;99.90;;;;;;4966228;28;20050;-76
2022/01/09 01:17:10;;;;;;;10.18;1.65;;;25.50;99.90;;;;;;4970332;28;20566;-76
2022/01/09 01:19:38;;;;;;;3.30;1.55;;;25.40;99.90;;;;;;4973031;28;20038;-75
2022/01/09 01:22:06;;;;;;;4.32;0.93;;;25.40;99.90;;;;;;4981973;28;20061;-76
2022/01/09 01:24:36;;;;;;;2.85;1.00;;;25.40;99.90;;;;;;4965542;28;20598;-75
2022/01/09 01:27:03;;;;;;;4.03;1.60;;;25.40;99.90;;;;;;4966473;28;20038;-74
2022/01/09 01:29:31;;;;;;;13.73;2.22;;;25.50;99.90;;;;;;4983108;28;21489;-73
2022/01/09 01:31:59;;;;;;;2.72;0.93;;;25.50;99.90;;;;;;4966660;28;20493;-75
2022/01/09 01:34:26;;;;;;;4.82;1.42;;;25.60;99.90;;;;;;4961833;28;20078;-75
2022/01/09 01:36:54;;;;;;;5.50;1.20;;;25.50;99.90;;;;;;4984442;28;20714;-75
2022/01/09 01:39:22;;;;;;;1.92;0.90;;;25.50;99.90;;;;;;4967818;28;20027;-75
2022/01/09 01:41:50;;;;;;;4.13;1.20;;;25.40;99.90;;;;;;4946879;28;20528;-73
2022/01/09 01:44:17;;;;;;;5.07;1.17;;;25.30;99.90;;;;;;4955784;28;20039;-74
2022/01/09 01:46:46;;;;;;;2.45;1.70;;;25.20;99.90;;;;;;4955593;28;20042;-74
2022/01/09 01:49:14;;;;;;;3.53;1.10;;;25.20;99.90;;;;;;4968057;28;20037;-74
2022/01/09 01:51:43;;;;;;;4.22;0.90;;;25.20;99.90;;;;;;4958778;28;20450;-74
2022/01/09 01:54:15;;;;;;;3.85;1.05;;;25.30;99.90;;;;;;4964287;28;20035;-77
2022/01/09 01:56:42;;;;;;;2.90;1.17;;;25.40;99.90;;;;;;4984978;28;20043;-77
2022/01/09 01:59:09;;;;;;;3.55;1.20;;;25.40;99.90;;;;;;4968932;28;20453;-76
2022/01/09 02:01:37;;;;;;;4.10;1.58;;;25.50;99.90;;;;;;4966330;28;20058;-73
2022/01/09 02:04:05;;;;;;;2.53;1.25;;;25.50;99.90;;;;;;4964599;28;20045;-74
2022/01/09 02:06:34;;;;;;;3.10;1.17;;;25.50;99.90;;;;;;4961539;28;20356;-74
2022/01/09 02:09:04;;;;;;;8.02;1.20;;;25.50;99.90;;;;;;4964900;28;20122;-74
2022/01/09 02:11:33;;;;;;;3.33;1.13;;;25.50;99.90;;;;;;4970241;28;20046;-74
2022/01/09 02:14:01;;;;;;;5.55;1.33;;;25.60;99.90;;;;;;4958749;28;20065;-74
2022/01/09 02:16:28;;;;;;;2.35;1.15;;;25.60;99.90;;;;;;4965505;28;20084;-73
2022/01/09 02:19:02;;;;;;;5.38;1.25;;;25.70;99.90;;;;;;4963604;28;20308;-74
2022/01/09 02:21:29;;;;;;;3.83;1.42;;;25.70;99.90;;;;;;4969146;28;20027;-76
2022/01/09 02:23:57;;;;;;;3.40;1.52;;;25.70;99.90;;;;;;4966447;28;20097;-75
2022/01/09 02:26:24;;;;;;;2.25;1.08;;;25.70;99.90;;;;;;4964569;28;20066;-74
2022/01/09 02:28:52;;;;;;;8.13;1.45;;;25.80;99.90;;;;;;4966425;28;20035;-74
2022/01/09 02:31:20;;;;;;;2.20;0.88;;;25.70;99.90;;;;;;4966520;28;20118;-75
2022/01/09 02:33:47;;;;;;;7.45;2.13;;;25.60;99.90;;;;;;4974599;28;20031;-74
2022/01/09 02:36:15;;;;;;;4.78;1.30;;;25.60;99.90;;;;;;4972971;28;20576;-74
2022/01/09 02:38:43;;;;;;;5.15;2.13;;;25.60;99.90;;;;;;4966776;28;20035;-74
2022/01/09 02:41:10;;;;;;;3.90;1.55;;;25.60;99.90;;;;;;4968040;28;20027;-74
2022/01/09 02:43:37;;;;;;;4.45;1.40;;;25.50;99.90;;;;;;4964780;28;20027;-75
2022/01/09 02:46:29;;;;;;;5.93;1.40;;;25.50;99.90;;;;;;4968215;28;20440;-75
2022/01/09 02:48:54;;;;;;;3.42;1.00;;;25.40;99.90;;;;;;4966732;28;20165;-75
2022/01/09 02:51:22;;;;;;;7.68;1.80;;;25.30;99.90;;;;;;4967648;28;20077;-75
2022/01/09 02:53:56;;;;;;;3.22;1.10;;;25.30;99.90;;;;;;4969013;28;20039;-74
2022/01/09 02:56:26;;;;;;;5.63;1.27;;;25.20;99.90;;;;;;4968094;28;20045;-75
2022/01/09 02:58:55;;;;;;;3.75;1.38;;;25.30;99.90;;;;;;4965287;28;20030;-76
2022/01/09 03:01:24;;;;;;;4.53;1.40;;;25.30;99.90;;;;;;4962839;28;20031;-74
2022/01/09 03:03:51;;;;;;;5.18;1.33;;;25.30;99.90;;;;;;4966768;28;20025;-75
2022/01/09 03:06:19;;;;;;;3.42;1.27;;;25.30;99.90;;;;;;4968494;28;20043;-74
2022/01/09 03:08:46;;;;;;;5.30;1.30;;;25.30;99.90;;;;;;4957368;28;20430;-74
2022/01/09 03:11:13;;;;;;;5.40;1.75;;;25.30;99.90;;;;;;4963351;28;20038;-72
2022/01/09 03:13:44;;;;;;;5.80;1.40;;;25.40;99.90;;;;;;4969050;28;20037;-74
2022/01/09 03:16:13;;;;;;;2.55;0.95;;;25.50;99.90;;;;;;4969094;28;20488;-74
2022/01/09 03:18:40;;;;;;;2.90;1.10;;;25.50;99.90;;;;;;4971992;28;20054;-76
2022/01/09 03:21:10;;;;;;;5.78;1.80;;;25.70;99.90;;;;;;4966369;28;20117;-75
2022/01/09 03:23:38;;;;;;;2.70;1.00;;;25.70;99.90;;;;;;4973540;28;20055;-75
2022/01/09 03:26:08;;;;;;;7.88;2.10;;;25.90;99.90;;;;;;4969477;28;20046;-74
2022/01/09 03:28:37;;;;;;;5.97;1.65;;;25.80;99.90;;;;;;4965973;28;20031;-75
2022/01/09 03:31:05;;;;;;;2.90;1.17;;;25.90;99.90;;;;;;4971798;28;20026;-74
2022/01/09 03:33:37;;;;;;;3.88;1.30;;;25.80;99.90;;;;;;4971949;28;20039;-77
2022/01/09 03:36:05;;;;;;;4.53;2.03;;;25.80;99.90;;;;;;4971931;28;20043;-75
2022/01/09 03:38:33;;;;;;;4.93;1.58;;;25.80;99.90;;;;;;4972665;28;20078;-74
2022/01/09 03:41:04;;;;;;;2.90;1.00;;;25.80;99.90;;;;;;4973094;28;20097;-74
2022/01/09 03:43:32;;;;;;;5.30;1.58;;;25.80;99.90;;;;;;4970828;28;20022;-75
2022/01/09 03:45:59;;;;;;;4.45;1.67;;;25.80;99.90;;;;;;4976971;28;20027;-76
2022/01/09 03:48:29;;;;;;;2.83;1.02;;;25.90;99.90;;;;;;4983059;28;20723;-74
2022/01/09 03:50:57;;;;;;;5.05;1.02;;;25.80;99.90;;;;;;4967775;28;20445;-75
2022/01/09 03:53:24;;;;;;;4.75;1.83;;;25.80;99.90;;;;;;4972993;28;20056;-75
2022/01/09 03:55:51;;;;;;;4.63;1.45;;;25.80;99.90;;;;;;4974771;28;20052;-74
2022/01/09 03:58:20;;;;;;;10.15;1.45;;;25.80;99.90;;;;;;4974191;28;20141;-78
2022/01/09 04:00:48;;;;;;;5.97;1.75;;;25.90;99.90;;;;;;4971275;28;20479;-74
2022/01/09 04:03:16;;;;;;;4.15;1.40;;;25.90;99.90;;;;;;4966564;28;20042;-75
2022/01/09 04:05:43;;;;;;;4.18;1.42;;;26.00;99.90;;;;;;4973654;28;20019;-75
2022/01/09 04:08:11;;;;;;;5.45;1.92;;;26.00;99.90;;;;;;4969833;28;20473;-76
2022/01/09 04:10:41;;;;;;;1.52;0.82;;;26.00;99.90;;;;;;4983644;28;20038;-74
2022/01/09 04:13:12;;;;;;;5.40;2.17;;;26.10;99.90;;;;;;4971511;28;20030;-74
2022/01/09 04:15:46;;;;;;;5.00;1.70;;;26.30;99.90;;;;;;4966670;28;20437;-75
2022/01/09 04:18:23;;;;;;;4.22;0.95;;;26.50;99.90;;;;;;4963697;28;20027;-75
2022/01/09 04:20:52;;;;;;;4.18;1.38;;;26.60;99.90;;;;;;4969943;28;20040;-74
2022/01/09 04:23:21;;;;;;;5.18;1.48;;;26.80;99.90;;;;;;4969349;28;20038;-75
2022/01/09 04:25:50;;;;;;;3.63;1.35;;;26.90;99.90;;;;;;4975876;28;20039;-75
2022/01/09 04:28:18;;;;;;;3.03;1.42;;;27.10;99.90;;;;;;4965248;28;20038;-80
2022/01/09 04:30:46;;;;;;;5.38;2.70;;;27.20;99.90;;;;;;4967634;28;20363;-75
2022/01/09 04:33:14;;;;;;;2.80;1.00;;;27.20;99.90;;;;;;4958846;28;20098;-79
2022/01/09 04:35:42;;;;;;;1.70;1.00;;;27.20;99.90;;;;;;4956117;28;20023;-76
2022/01/09 04:38:10;;;;;;;3.30;1.25;;;27.30;99.90;;;;;;4964086;28;20037;-75
2022/01/09 04:40:38;;;;;;;4.78;1.98;;;27.50;99.90;;;;;;4969792;28;20150;-75
2022/01/09 04:43:08;;;;;;;4.00;1.33;;;27.50;99.90;;;;;;4972819;28;20086;-79
2022/01/09 04:45:35;;;;;;;3.35;1.10;;;27.60;99.90;;;;;;4966522;28;20035;-76
2022/01/09 04:48:06;;;;;;;3.42;1.08;;;27.60;99.90;;;;;;4960399;28;20121;-78
2022/01/09 04:50:36;;;;;;;4.45;1.70;;;28.10;99.90;;;;;;4963196;28;20089;-75
2022/01/09 04:53:07;;;;;;;2.35;1.13;;;28.50;99.90;;;;;;4970415;28;20536;-77
2022/01/09 04:55:39;;;;;;;2.97;2.22;;;28.40;99.90;;;;;;4971406;28;20026;-76
2022/01/09 04:58:06;;;;;;;3.20;0.93;;;28.10;99.90;;;;;;4967696;28;20042;-76
2022/01/09 05:00:34;;;;;;;4.82;1.10;;;28.10;99.90;;;;;;4957485;28;20493;-75
2022/01/09 05:03:01;;;;;;;4.05;1.15;;;28.10;99.90;;;;;;4962405;28;20429;-74
2022/01/09 05:05:29;;;;;;;5.38;1.95;;;28.00;99.90;;;;;;4965741;28;20026;-73
2022/01/09 05:07:56;;;;;;;3.50;1.05;;;28.00;99.90;;;;;;4965110;28;20038;-74
2022/01/09 05:10:24;;;;;;;4.18;0.90;;;28.00;99.90;;;;;;4960096;28;20540;-74
2022/01/09 05:12:51;;;;;;;2.85;0.90;;;28.00;99.90;;;;;;4961716;28;20164;-76
2022/01/09 05:15:19;;;;;;;5.25;1.33;;;27.90;99.90;;;;;;4959179;28;20019;-76
2022/01/09 05:17:50;;;;;;;2.25;1.33;;;27.80;99.90;;;;;;4970594;28;20066;-76
2022/01/09 05:20:18;;;;;;;2.97;1.10;;;27.70;99.90;;;;;;4965372;28;20110;-78
2022/01/09 05:22:45;;;;;;;3.97;1.00;;;27.60;99.90;;;;;;4970513;28;20138;-76
2022/01/09 05:25:13;;;;;;;5.38;1.35;;;27.40;99.90;;;;;;4971231;28;20030;-77
2022/01/09 05:27:41;;;;;;;5.63;1.17;;;27.20;99.90;;;;;;4966770;28;20049;-78
2022/01/09 05:30:08;;;;;;;2.75;1.23;;;27.20;99.90;;;;;;4966297;28;20026;-75
2022/01/09 05:32:37;;;;;;;4.32;1.50;;;27.20;99.90;;;;;;4961559;28;20042;-76
2022/01/09 05:35:05;;;;;;;3.28;1.02;;;27.20;99.90;;;;;;4960161;28;20374;-77
2022/01/09 05:37:32;;;;;;;4.88;1.38;;;27.20;99.90;;;;;;4966755;28;20031;-78
2022/01/09 05:39:59;;;;;;;10.50;1.95;;;27.20;99.90;;;;;;4958674;28;20564;-75
2022/01/09 05:42:27;;;;;;;4.78;1.90;;;27.20;99.90;;;;;;4960720;28;20027;-75
2022/01/09 05:44:54;;;;;;;5.85;1.38;;;27.20;99.90;;;;;;4964846;28;20077;-75
2022/01/09 05:47:22;;;;;;;2.60;1.45;;;27.20;99.90;;;;;;4963421;28;20525;-77
2022/01/09 05:49:49;;;;;;;2.35;0.80;;;27.20;99.90;;;;;;4978086;28;20394;-78
2022/01/09 05:52:17;;;;;;;3.25;0.88;;;27.20;99.90;;;;;;4966301;28;20110;-76
2022/01/09 05:54:44;;;;;;;4.32;1.50;;;27.10;99.90;;;;;;4965718;28;20050;-75
2022/01/09 05:57:11;;;;;;;4.22;1.02;;;27.00;99.90;;;;;;4968870;28;20023;-74
2022/01/09 05:59:39;;;;;;;2.20;0.98;;;27.00;99.90;;;;;;4974150;28;20652;-79
2022/01/09 06:02:06;;;;;;;5.15;1.10;;;27.20;99.90;;;;;;4969550;28;20066;-78
2022/01/09 06:04:34;;;;;;;3.92;1.10;;;27.20;99.90;;;;;;4966330;28;20446;-76
2022/01/09 06:07:01;;;;;;;3.95;1.65;;;27.20;99.90;;;;;;4972708;28;20465;-75
2022/01/09 06:09:28;;;;;;;5.35;1.48;;;27.10;99.90;;;;;;4966948;28;20026;-74
2022/01/09 06:11:56;;;;;;;5.32;1.35;;;27.10;99.90;;;;;;4960536;28;20062;-75
2022/01/09 06:14:23;;;;;;;2.33;1.35;;;27.10;99.90;;;;;;4965553;28;20023;-74
2022/01/09 06:16:51;;;;;;;3.65;1.27;;;27.10;99.90;;;;;;4969890;28;20027;-78
2022/01/09 06:19:18;;;;;;;3.42;0.80;;;27.10;99.90;;;;;;4962754;28;20059;-78
2022/01/09 06:21:45;;;;;;;4.63;1.30;;;26.90;99.90;;;;;;4957535;28;20028;-79
2022/01/09 06:24:13;;;;;;;4.40;1.88;;;26.80;99.90;;;;;;4966111;28;20432;-75
2022/01/09 06:26:40;;;;;;;4.30;1.55;;;26.80;99.90;;;;;;4970884;28;20493;-75
2022/01/09 06:29:08;;;;;;;4.53;1.33;;;26.70;99.90;;;;;;4968265;28;20035;-75
2022/01/09 06:31:35;;;;;;;2.95;1.90;;;26.60;99.90;;;;;;4965326;28;20026;-75
2022/01/09 06:34:02;;;;;;;3.42;1.30;;;26.50;99.90;;;;;;4965681;28;20035;-74
2022/01/09 06:36:30;;;;;;;4.65;1.40;;;26.50;99.90;;;;;;4961064;28;20043;-73
2022/01/09 06:38:57;;;;;;;4.18;1.27;;;26.50;99.90;;;;;;4966799;28;20085;-74
2022/01/09 06:41:24;;;;;;;4.25;1.20;;;26.40;99.90;;;;;;4966204;28;20034;-74
2022/01/09 06:43:52;;;;;;;5.50;1.52;;;26.40;99.90;;;;;;4959870;28;20032;-74
2022/01/09 06:46:19;;;;;;;11.75;2.53;;;26.30;99.90;;;;;;4954195;28;20137;-75
2022/01/09 06:48:46;;;;;;;6.20;1.40;;;26.30;99.90;;;;;;4962336;28;20036;-73
2022/01/09 06:51:14;;;;;;;6.35;1.35;;;26.40;99.90;;;;;;4966684;28;20086;-76
2022/01/09 06:53:41;;;;;;;5.10;2.38;;;26.30;99.90;;;;;;4965737;28;20031;-76
2022/01/09 06:56:08;;;;;;;5.07;1.83;;;26.20;99.90;;;;;;4954095;28;20396;-76
2022/01/09 06:58:39;;;;;;;5.82;2.03;;;26.20;99.90;;;;;;4962409;28;20045;-75
2022/01/09 07:01:07;;;;;;;3.13;2.03;;;26.10;99.90;;;;;;4971553;28;20532;-75
2022/01/09 07:03:34;;;;;;;8.32;2.00;;;26.00;99.90;;;;;;4967157;28;20063;-74
2022/01/09 07:06:02;;;;;;;6.53;1.48;;;26.00;99.90;;;;;;4971674;28;20088;-76
2022/01/09 07:08:33;;;;;;;7.05;1.80;;;25.90;99.90;;;;;;4973008;28;20069;-75
2022/01/09 07:11:01;;;;;;;3.83;1.55;;;25.90;99.90;;;;;;4987936;28;20481;-78
2022/01/09 07:13:29;;;;;;;5.35;1.65;;;25.90;99.90;;;;;;4972902;28;20039;-75
2022/01/09 07:15:57;;;;;;;5.25;1.80;;;25.90;99.90;;;;;;4973492;28;20125;-77
2022/01/09 07:18:32;;;;;;;9.38;2.80;;;26.00;99.90;;;;;;4971734;28;20110;-76
2022/01/09 07:20:59;;;;;;;5.07;1.75;;;25.80;99.90;;;;;;4955212;28;20074;-75
2022/01/09 07:23:27;;;;;;;7.93;2.72;;;25.80;99.90;;;;;;4965024;28;20053;-75
2022/01/09 07:25:54;;;;;;;6.30;2.50;;;25.80;99.90;;;;;;4970663;28;20046;-76
2022/01/09 07:28:21;;;;;;;5.88;1.65;;;25.80;99.90;;;;;;4968625;28;20183;-76
2022/01/09 07:30:49;;;;;;;7.53;2.20;;;25.80;99.90;;;;;;4963758;28;20022;-77
2022/01/09 07:33:16;;;;;;;3.55;1.50;;;25.80;99.90;;;;;;4962622;28;20106;-77
2022/01/09 07:35:43;;;;;;;4.25;1.42;;;25.70;99.90;;;;;;4969188;28;20034;-75
2022/01/09 07:38:11;;;;;;;5.13;1.60;;;25.70;99.90;;;;;;4966379;28;20090;-78
2022/01/09 07:40:38;;;;;;;3.95;1.08;;;25.70;99.90;;;;;;4966469;28;20016;-76
2022/01/09 07:43:06;;;;;;;4.30;1.23;;;25.80;99.90;;;;;;4962067;28;20023;-78
2022/01/09 07:45:33;;;;;;;4.30;2.10;;;25.80;99.90;;;;;;4962658;28;20019;-77
2022/01/09 07:48:01;;;;;;;5.75;1.48;;;25.70;99.90;;;;;;4972017;28;20051;-80
2022/01/09 07:50:29;;;;;;;5.18;1.60;;;25.70;99.90;;;;;;4963960;28;20035;-76
2022/01/09 07:52:57;;;;;;;7.75;2.10;;;25.70;99.90;;;;;;4960817;28;20031;-76
2022/01/09 07:55:24;;;;;;;5.15;1.88;;;25.70;99.90;;;;;;4965824;28;20073;-77
2022/01/09 07:57:52;;;;;;;4.13;0.93;;;25.70;99.90;;;;;;4970991;28;20033;-77
2022/01/09 08:00:21;;;;;;;7.15;1.25;;;25.80;99.90;;;;;;4972671;28;20019;-75
2022/01/09 08:02:51;;;;;;;4.15;1.10;;;25.80;99.90;;;;;;4970208;28;20049;-78
2022/01/09 08:05:19;;;;;;;8.38;1.85;;;25.80;99.90;;;;;;4956528;28;20035;-76
2022/01/09 08:07:46;;;;;;;6.35;1.73;;;25.70;99.90;;;;;;4963259;28;20041;-76
2022/01/09 08:10:14;;;;;;;5.72;1.63;;;25.70;99.90;;;;;;4965352;28;20044;-76
2022/01/09 08:12:41;;;;;;;2.60;1.08;;;25.60;99.90;;;;;;4962775;28;20647;-75
2022/01/09 08:15:09;;;;;;;4.88;1.55;;;25.50;99.90;;;;;;4963881;28;20054;-75
2022/01/09 08:17:36;;;;;;;6.70;1.25;;;25.40;99.90;;;;;;4973667;28;20510;-75
2022/01/09 08:20:04;;;;;;;3.67;1.30;;;25.40;99.90;;;;;;4970348;28;20041;-76
2022/01/09 08:22:32;;;;;;;2.88;0.80;;;25.50;99.90;;;;;;4971062;28;20632;-75
2022/01/09 08:25:00;;;;;;;7.20;1.15;;;25.50;99.90;;;;;;4960118;28;20038;-74
2022/01/09 08:27:27;;;;;;;5.20;1.45;;;25.40;99.90;;;;;;4968834;28;20062;-75
2022/01/09 08:29:55;;;;;;;6.53;2.08;;;25.30;99.90;;;;;;4967508;28;20027;-76
2022/01/09 08:32:22;;;;;;;2.67;1.10;;;25.20;99.90;;;;;;4969911;28;20042;-75
2022/01/09 08:34:49;;;;;;;2.08;1.20;;;25.00;99.90;;;;;;4973500;28;20031;-76
2022/01/09 08:37:17;;;;;;;4.38;1.17;;;25.00;99.90;;;;;;4971658;28;20035;-76
2022/01/09 08:39:45;;;;;;;4.35;1.20;;;25.00;99.90;;;;;;4969734;28;20074;-76
2022/01/09 08:42:12;;;;;;;4.18;1.35;;;25.00;99.90;;;;;;4970649;28;20033;-76
2022/01/09 08:44:40;;;;;;;2.90;1.23;;;25.10;99.90;;;;;;4967544;28;20023;-76
2022/01/09 08:47:09;;;;;;;4.15;1.10;;;25.10;99.90;;;;;;4963531;28;20038;-76
2022/01/09 08:49:36;;;;;;;1.30;0.93;;;25.10;99.90;;;;;;4963348;28;20355;-78
2022/01/09 08:52:04;;;;;;;3.53;1.10;;;25.10;99.90;;;;;;4959231;28;20520;-77
2022/01/09 08:54:32;;;;;;;9.20;1.33;;;25.10;99.90;;;;;;4968636;28;20514;-76
2022/01/09 08:57:00;;;;;;;2.42;1.20;;;25.10;99.90;;;;;;4967825;28;20038;-76
2022/01/09 08:59:27;;;;;;;3.10;1.08;;;25.10;99.90;;;;;;4968751;28;20027;-75
2022/01/09 09:01:55;;;;;;;3.72;1.20;;;25.00;99.90;;;;;;4969938;28;20030;-76
2022/01/09 09:04:23;;;;;;;2.53;1.05;;;25.10;99.90;;;;;;4968964;28;20034;-76
2022/01/09 09:06:51;;;;;;;4.90;1.15;;;25.00;99.90;;;;;;4970656;28;20093;-76
2022/01/09 09:09:19;;;;;;;3.30;1.10;;;25.10;99.90;;;;;;4963838;28;20030;-76
2022/01/09 09:11:48;;;;;;;2.25;0.80;;;25.10;99.90;;;;;;4968186;28;21197;-75
2022/01/09 09:14:17;;;;;;;5.70;1.52;;;25.00;99.90;;;;;;4967705;28;20039;-75
2022/01/09 09:16:44;;;;;;;2.58;1.55;;;24.90;99.90;;;;;;4961213;28;20033;-77
2022/01/09 09:19:12;;;;;;;5.60;1.33;;;24.90;99.90;;;;;;4970187;28;20045;-81
2022/01/09 09:21:39;;;;;;;5.72;1.50;;;24.90;99.90;;;;;;4961028;28;20106;-77
2022/01/09 09:24:07;;;;;;;5.97;1.45;;;24.90;99.90;;;;;;4965268;28;20043;-80
2022/01/09 09:26:34;;;;;;;3.65;1.77;;;24.80;99.90;;;;;;4973385;28;20078;-81
2022/01/09 09:29:01;;;;;;;2.20;0.70;;;24.90;99.90;;;;;;4967917;28;20371;-84
2022/01/09 09:31:29;;;;;;;5.70;1.42;;;25.00;99.90;;;;;;4960028;28;20038;-81
2022/01/09 09:33:56;;;;;;;5.07;1.02;;;24.90;99.90;;;;;;4962123;28;20027;-83
2022/01/09 09:36:24;;;;;;;5.13;0.80;;;25.00;99.90;;;;;;4958781;28;20103;-80
2022/01/09 09:38:52;;;;;;;4.60;0.93;;;25.00;99.90;;;;;;4981746;28;20038;-79
2022/01/09 09:41:23;;;;;;;1.67;0.60;;;25.00;99.90;;;;;;4962449;28;20101;-76
2022/01/09 09:43:51;;;;;;;4.88;1.50;;;25.20;99.90;;;;;;4964226;28;20039;-75
2022/01/09 09:46:25;;;;;;;6.43;1.33;;;25.20;99.90;;;;;;4956277;28;20062;-78
2022/01/09 09:48:54;;;;;;;9.70;1.00;;;25.20;99.90;;;;;;4955867;28;20027;-76
2022/01/09 09:51:27;;;;;;;4.43;1.42;;;25.20;99.90;;;;;;4968275;28;20058;-79
2022/01/09 09:53:55;;;;;;;4.55;0.93;;;25.20;99.90;;;;;;4967395;28;20108;-77
2022/01/09 09:56:22;;;;;;;5.57;1.30;;;25.10;99.90;;;;;;4970611;28;20170;-77
2022/01/09 09:58:51;;;;;;;4.63;1.13;;;25.00;99.90;;;;;;4971133;28;20062;-80
2022/01/09 10:01:45;;;;;;;5.70;2.15;;;24.90;99.90;;;;;;4968665;28;20022;-77
2022/01/09 10:04:12;;;;;;;3.10;0.98;;;24.80;99.90;;;;;;4966355;28;20051;-80
2022/01/09 10:06:47;;;;;;;6.03;1.55;;;24.80;99.90;;;;;;4964476;28;20039;-77
2022/01/09 10:09:18;;;;;;;5.72;1.30;;;24.70;99.90;;;;;;4969536;28;20045;-76
2022/01/09 10:12:05;;;;;;;4.60;1.13;;;24.70;99.90;;;;;;4959144;28;20351;-76
2022/01/09 10:14:34;;;;;;;4.65;1.13;;;24.70;99.90;;;;;;4964338;28;20075;-80
2022/01/09 10:17:21;;;;;;;8.35;1.63;;;24.70;99.90;;;;;;4966441;28;20077;-76
2022/01/09 10:19:52;;;;;;;6.40;1.23;;;24.70;99.90;;;;;;4957895;28;20035;-80
2022/01/09 10:22:30;;;;;;;9.02;2.30;;;24.70;99.90;;;;;;4964834;28;20030;-76
2022/01/09 10:24:58;;;;;;;3.70;1.27;;;24.70;99.90;;;;;;4983092;28;20049;-78
2022/01/09 10:27:34;;;;;;;7.68;1.75;;;24.80;99.90;;;;;;4970938;28;20034;-75
2022/01/09 10:30:04;;;;;;;5.32;1.20;;;24.90;99.90;;;;;;4973220;28;20046;-79
2022/01/09 10:32:33;;;;;;;4.70;2.17;;;24.90;99.90;;;;;;4981890;28;20105;-78
2022/01/09 10:35:17;;;;;;;10.00;2.75;;;24.90;99.90;;;;;;4971489;28;20034;-77
2022/01/09 10:37:50;;;;;;;5.05;1.08;;;24.90;99.90;;;;;;4979367;28;20378;-81
2022/01/09 10:40:32;;;;;;;6.63;1.02;;;24.80;99.90;;;;;;4980587;28;20394;-78
2022/01/09 10:43:16;;;;;;;2.83;1.20;;;24.70;99.90;;;;;;4968670;28;20113;-79
2022/01/09 10:45:50;;;;;;;2.33;1.00;;;24.60;99.90;;;;;;4971378;28;20027;-82
2022/01/09 10:48:24;;;;;;;5.15;1.30;;;24.60;99.90;;;;;;4973503;28;20038;-83
2022/01/09 10:50:52;;;;;;;5.82;1.65;;;24.50;99.90;;;;;;4974881;28;20074;-77
2022/01/09 10:53:23;;;;;;;3.70;1.27;;;24.40;99.90;;;;;;4967974;28;20109;-77
2022/01/09 10:56:17;;;;;;;2.60;1.10;;;24.30;99.90;;;;;;4970474;28;20023;-76
2022/01/09 10:58:56;;;;;;;4.88;1.25;;;24.30;99.90;;;;;;4987909;28;20607;-78
2022/01/09 11:01:29;;;;;;;2.45;1.02;;;24.30;99.90;;;;;;4958243;28;20024;-81
2022/01/09 11:04:14;;;;;;;4.95;1.20;;;24.20;99.90;;;;;;4969427;28;20079;-78
2022/01/09 11:06:43;;;;;;;3.97;1.23;;;24.20;99.90;;;;;;4974702;28;20121;-77
2022/01/09 11:09:11;;;;;;;4.82;1.38;;;24.20;99.90;;;;;;4972618;28;20031;-75
2022/01/09 11:11:40;;;;;;;4.05;1.13;;;24.20;99.90;;;;;;4971657;28;20482;-75
2022/01/09 11:14:17;;;;;;;3.05;1.65;;;24.20;99.90;;;;;;4965138;28;20596;-77
2022/01/09 11:16:53;;;;;;;7.18;1.10;;;24.10;99.90;;;;;;4970909;28;20023;-77
2022/01/09 11:19:22;;;;;;;6.32;1.10;;;24.10;99.90;;;;;;4969155;28;20039;-76
2022/01/09 11:22:01;;;;;;;6.38;1.13;;;24.10;99.90;;;;;;4962956;28;20035;-76
2022/01/09 11:25:05;;;;;;;3.45;1.05;;;24.10;99.90;;;;;;4958888;28;20055;-77
2022/01/09 11:28:08;;;;;;;3.67;1.05;;;24.10;99.90;;;;;;4969948;28;20038;-74
2022/01/09 11:31:00;;;;;;;2.20;0.90;;;24.00;99.90;;;;;;4972154;28;20030;-75
2022/01/09 11:33:48;;;;;;;5.20;1.50;;;24.00;99.90;;;;;;4969003;28;20113;-74
2022/01/09 11:36:47;;;;;;;5.63;1.17;;;24.10;99.90;;;;;;4961160;28;20022;-74
2022/01/09 11:39:36;;;;;;;8.13;1.30;;;24.10;99.90;;;;;;4973033;28;20490;-74
2022/01/09 11:42:11;;;;;;;7.65;1.40;;;24.10;99.90;;;;;;4964300;28;20045;-76
2022/01/09 11:44:53;;;;;;;12.25;2.55;;;24.10;99.90;;;;;;4955013;28;20028;-74
2022/01/09 11:47:22;;;;;;;5.03;1.50;;;24.10;99.90;;;;;;4973352;28;20061;-74
2022/01/09 11:49:56;;;;;;;5.32;1.55;;;24.10;99.90;;;;;;4969005;28;20140;-75
2022/01/09 11:52:25;;;;;;;4.22;1.95;;;24.10;99.90;;;;;;4964889;28;20035;-76
2022/01/09 11:54:59;;;;;;;4.47;1.20;;;24.10;99.90;;;;;;4972336;28;20026;-80
2022/01/09 11:57:44;;;;;;;3.38;1.52;;;24.10;99.90;;;;;;4960598;28;20069;-78
2022/01/09 12:00:31;;;;;;;3.53;1.00;;;24.10;99.90;;;;;;4972905;28;20105;-75
2022/01/09 12:03:00;;;;;;;5.50;1.13;;;24.10;99.90;;;;;;4972478;28;20035;-74
2022/01/09 12:05:28;;;;;;;6.93;1.83;;;24.10;99.90;;;;;;4966787;28;20034;-73
2022/01/09 12:07:55;;;;;;;6.55;1.27;;;24.10;99.90;;;;;;4966739;28;20516;-82
2022/01/09 12:10:35;;;;;;;3.75;1.40;;;24.10;99.90;;;;;;4970324;28;20090;-73
2022/01/09 12:13:05;;;;;;;4.55;1.98;;;24.00;99.90;;;;;;4965368;28;20038;-76
2022/01/09 12:15:36;;;;;;;6.15;1.25;;;24.00;99.90;;;;;;4969957;28;20054;-78
2022/01/09 12:18:04;;;;;;;4.03;1.17;;;24.00;99.90;;;;;;4968220;28;20347;-79
2022/01/09 12:20:37;;;;;;;3.20;1.20;;;24.00;99.90;;;;;;4967503;28;20030;-79
2022/01/09 12:23:07;;;;;;;3.97;1.50;;;24.00;99.90;;;;;;4967233;28;20034;-78
2022/01/09 12:25:37;;;;;;;5.75;1.42;;;23.90;99.90;;;;;;4974402;28;20027;-77
2022/01/09 12:28:04;;;;;;;3.63;1.10;;;23.90;99.90;;;;;;4965946;28;20522;-77
2022/01/09 12:33:09;;;;;;;5.55;1.77;;;23.80;99.90;;;;;;4972186;28;20577;-78
2022/01/09 12:35:39;;;;;;;2.58;1.45;;;23.70;99.90;;;;;;4972783;28;20525;-77
2022/01/09 12:38:07;;;;;;;4.93;2.20;;;23.70;99.90;;;;;;4969617;28;20030;-77
2022/01/09 12:40:36;;;;;;;4.10;1.08;;;23.60;99.90;;;;;;4976289;28;20033;-77
2022/01/09 12:43:05;;;;;;;5.03;2.42;;;23.60;99.90;;;;;;4968504;28;20027;-77
2022/01/09 12:45:40;;;;;;;3.97;1.67;;;23.60;99.90;;;;;;4969363;28;20035;-78
2022/01/09 12:48:07;;;;;;;7.47;2.10;;;23.50;99.90;;;;;;4968196;28;20548;-77
2022/01/09 12:50:39;;;;;;;4.95;1.77;;;23.60;99.90;;;;;;4970669;28;20026;-78
2022/01/09 12:53:30;;;;;;;5.10;1.42;;;23.50;99.90;;;;;;4966244;28;20029;-77
2022/01/09 12:56:04;;;;;;;4.60;1.70;;;23.50;99.90;;;;;;4964554;28;20130;-78
2022/01/09 12:58:35;;;;;;;7.13;2.33;;;23.40;99.90;;;;;;4970777;28;20026;-77
2022/01/09 13:01:06;;;;;;;5.15;1.63;;;23.40;99.90;;;;;;4954714;28;20034;-77